MKJS 220800Z 13004KT 9999 VCTS FEW022CB 27/22 Q1013
MKJP 220800Z 30004KT 9999 FEW022CB 27/21 Q1014
MWCR 220300Z 07008KT 9999 FEW018 29/26 Q1015
MWCB 220000Z 06004KT 040V110 9999 FEW022CB 30/25 Q1014